createdAt,value
2023-04-03T00:00:05.618Z,1.04
2023-04-03T00:01:05.708Z,1.16
2023-04-03T00:02:05.801Z,1.21
2023-04-03T00:03:05.778Z,0.97
2023-04-03T00:04:05.810Z,1.07
2023-04-03T00:05:05.865Z,0.95
2023-04-03T00:06:05.885Z,1.23
2023-04-03T00:07:05.994Z,1.03
2023-04-03T00:08:05.899Z,0.84
2023-04-03T00:09:06.386Z,1.28
2023-04-03T00:10:06.029Z,0.92
2023-04-03T00:11:06.040Z,0.83
2023-04-03T00:12:06.096Z,1.08
2023-04-03T00:13:06.077Z,1.18
2023-04-03T00:14:06.099Z,1.01
2023-04-03T00:15:06.112Z,0.96
2023-04-03T00:16:06.099Z,0.75
2023-04-03T00:17:06.201Z,1.00
2023-04-03T00:18:06.142Z,1.35
2023-04-03T00:19:06.107Z,1.01
2023-04-03T00:20:06.139Z,0.84
2023-04-03T00:21:06.211Z,0.85
2023-04-03T00:22:06.164Z,1.03
2023-04-03T00:23:06.207Z,0.88
2023-04-03T00:24:06.226Z,0.95
2023-04-03T00:25:06.143Z,1.02
2023-04-03T00:26:07.154Z,0.89
2023-04-03T00:27:06.173Z,1.20
2023-04-03T00:28:06.141Z,1.01
2023-04-03T00:29:06.107Z,1.24
2023-04-03T00:30:06.101Z,1.22
2023-04-03T00:31:06.133Z,1.30
2023-04-03T00:32:06.174Z,1.35
2023-04-03T00:33:06.125Z,1.11
2023-04-03T00:34:06.093Z,0.99
2023-04-03T00:35:06.102Z,0.90
2023-04-03T00:36:06.156Z,1.10
2023-04-03T00:37:06.242Z,1.43
2023-04-03T00:38:06.077Z,1.14
2023-04-03T00:39:06.035Z,0.95
2023-04-03T00:40:06.116Z,1.12
2023-04-03T00:41:06.184Z,1.40
2023-04-03T00:42:06.259Z,1.13
2023-04-03T00:43:06.214Z,1.37
2023-04-03T00:44:06.288Z,1.36
2023-04-03T00:45:06.361Z,1.52
2023-04-03T00:46:06.343Z,1.42
2023-04-03T00:47:06.343Z,1.60
2023-04-03T00:48:06.316Z,1.30
2023-04-03T00:49:06.333Z,1.37
2023-04-03T00:50:06.446Z,1.26
2023-04-03T00:51:06.514Z,0.93
2023-04-03T00:52:06.638Z,1.17
2023-04-03T00:53:06.644Z,1.12
2023-04-03T00:54:06.624Z,1.25
2023-04-03T00:55:06.626Z,1.37
2023-04-03T00:56:06.604Z,1.30
2023-04-03T00:57:06.616Z,1.18
2023-04-03T00:58:06.600Z,1.46
2023-04-03T00:59:06.639Z,1.10
2023-04-03T01:00:06.608Z,1.40
2023-04-03T01:01:06.593Z,1.16
2023-04-03T01:02:06.687Z,1.27
2023-04-03T01:03:07.248Z,1.58
2023-04-03T01:04:06.588Z,1.28
2023-04-03T01:05:06.605Z,1.26
2023-04-03T01:06:06.515Z,1.34
2023-04-03T01:07:06.889Z,1.11
2023-04-03T01:08:06.608Z,1.33
2023-04-03T01:09:06.591Z,1.08
2023-04-03T01:10:06.658Z,1.20
2023-04-03T01:11:06.609Z,1.09
2023-04-03T01:12:06.611Z,1.08
2023-04-03T01:13:06.669Z,1.55
2023-04-03T01:14:06.618Z,1.22
2023-04-03T01:15:06.611Z,1.16
2023-04-03T01:16:06.625Z,1.11
2023-04-03T01:17:06.629Z,1.07
2023-04-03T01:18:06.673Z,1.41
2023-04-03T01:19:06.592Z,1.37
2023-04-03T01:20:06.665Z,1.17
2023-04-03T01:21:06.619Z,1.37
2023-04-03T01:22:06.619Z,1.12
2023-04-03T01:23:06.537Z,1.15
2023-04-03T01:24:06.542Z,1.35
2023-04-03T01:25:06.654Z,1.21
2023-04-03T01:26:06.757Z,1.20
2023-04-03T01:27:06.688Z,1.09
2023-04-03T01:28:06.736Z,1.44
2023-04-03T01:29:06.728Z,1.37
2023-04-03T01:30:06.772Z,1.21
2023-04-03T01:31:06.816Z,1.26
2023-04-03T01:32:06.645Z,1.68
2023-04-03T01:33:06.763Z,1.85
2023-04-03T01:34:06.632Z,1.58
2023-04-03T01:35:06.642Z,1.48
2023-04-03T01:36:06.780Z,1.63
2023-04-03T01:37:06.628Z,1.13
2023-04-03T01:38:06.623Z,1.73
2023-04-03T01:39:06.610Z,1.68
2023-04-03T01:40:06.688Z,1.45
2023-04-03T01:41:06.780Z,1.55
2023-04-03T01:42:06.780Z,1.85
2023-04-03T01:43:06.818Z,1.52
2023-04-03T01:44:06.898Z,1.27
2023-04-03T01:45:06.995Z,1.81
2023-04-03T01:46:06.948Z,1.44
2023-04-03T01:47:06.895Z,1.77
2023-04-03T01:48:06.997Z,1.43
2023-04-03T01:49:06.927Z,1.73
2023-04-03T01:50:07.100Z,1.67
2023-04-03T01:51:07.087Z,1.61
2023-04-03T01:52:07.153Z,1.68
2023-04-03T01:53:07.208Z,1.66
2023-04-03T01:54:07.354Z,1.53
2023-04-03T01:55:07.378Z,1.68
2023-04-03T01:56:07.357Z,1.88
2023-04-03T01:57:07.462Z,1.53
2023-04-03T01:58:07.497Z,2.03
2023-04-03T01:59:07.496Z,1.35
2023-04-03T02:00:07.539Z,2.01
2023-04-03T02:01:07.668Z,1.84
2023-04-03T02:02:07.610Z,1.71
2023-04-03T02:03:07.800Z,1.89
2023-04-03T02:04:07.867Z,1.85
2023-04-03T02:05:08.256Z,1.56
2023-04-03T02:06:07.802Z,1.73
2023-04-03T02:07:07.862Z,1.88
2023-04-03T02:08:07.901Z,1.82
2023-04-03T02:09:07.960Z,1.57
2023-04-03T02:10:08.083Z,1.79
2023-04-03T02:11:08.080Z,1.55
2023-04-03T02:12:08.039Z,1.37
2023-04-03T02:13:08.156Z,1.61
2023-04-03T02:14:08.147Z,1.54
2023-04-03T02:15:08.201Z,1.77
2023-04-03T02:16:08.826Z,1.54
2023-04-03T02:17:08.215Z,1.47
2023-04-03T02:18:08.378Z,2.29
2023-04-03T02:19:08.261Z,1.33
2023-04-03T02:20:08.344Z,1.71
2023-04-03T02:21:08.356Z,1.69
2023-04-03T02:22:08.445Z,1.56
2023-04-03T02:23:08.456Z,1.74
2023-04-03T02:24:08.574Z,1.68
2023-04-03T02:25:08.485Z,1.80
2023-04-03T02:26:08.584Z,1.84
2023-04-03T02:27:08.578Z,1.76
2023-04-03T02:28:08.567Z,1.48
2023-04-03T02:29:08.606Z,2.08
2023-04-03T02:30:08.637Z,1.87
2023-04-03T02:31:08.702Z,1.73
2023-04-03T02:32:08.747Z,2.08
2023-04-03T02:33:08.746Z,1.57
2023-04-03T02:34:08.829Z,1.80
2023-04-03T02:35:08.866Z,2.02
2023-04-03T02:36:08.761Z,1.87
2023-04-03T02:37:08.767Z,1.89
2023-04-03T02:38:08.761Z,2.07
2023-04-03T02:39:08.881Z,1.81
2023-04-03T02:40:08.828Z,1.79
2023-04-03T02:41:08.686Z,1.71
2023-04-03T02:42:08.691Z,1.51
2023-04-03T02:43:08.663Z,1.65
2023-04-03T02:44:08.639Z,1.90
2023-04-03T02:45:08.637Z,1.73
2023-04-03T02:46:08.714Z,1.49
2023-04-03T02:47:08.633Z,1.66
2023-04-03T02:48:08.645Z,1.65
2023-04-03T02:49:08.650Z,1.77
2023-04-03T02:50:08.659Z,1.50
2023-04-03T02:51:08.647Z,1.98
2023-04-03T02:52:08.715Z,1.65
2023-04-03T02:53:08.629Z,1.81
2023-04-03T02:54:08.652Z,1.59
2023-04-03T02:55:08.656Z,1.87
2023-04-03T02:56:08.658Z,1.92
2023-04-03T02:57:08.633Z,1.82
2023-04-03T02:58:09.698Z,1.62
2023-04-03T02:59:08.675Z,1.81
2023-04-03T03:00:08.764Z,1.49
2023-04-03T03:01:08.785Z,1.91
2023-04-03T03:02:08.925Z,2.06
2023-04-03T03:03:08.927Z,2.18
2023-04-03T03:04:09.015Z,2.08
2023-04-03T03:05:09.057Z,2.27
2023-04-03T03:06:09.053Z,2.35
2023-04-03T03:07:09.141Z,2.24
2023-04-03T03:08:09.123Z,2.20
2023-04-03T03:09:09.135Z,2.11
2023-04-03T03:10:09.250Z,2.26
2023-04-03T03:11:09.303Z,2.31
2023-04-03T03:12:09.429Z,1.86
2023-04-03T03:13:09.455Z,2.22
2023-04-03T03:14:09.473Z,2.04
2023-04-03T03:15:10.296Z,2.05
2023-04-03T03:16:09.700Z,2.23
2023-04-03T03:17:09.661Z,1.84
2023-04-03T03:18:09.674Z,2.23
2023-04-03T03:19:09.779Z,2.43
2023-04-03T03:20:09.782Z,2.02
2023-04-03T03:21:09.747Z,1.63
2023-04-03T03:22:09.788Z,2.18
2023-04-03T03:23:09.794Z,2.47
2023-04-03T03:24:09.908Z,2.26
2023-04-03T03:25:09.908Z,1.67
2023-04-03T03:26:10.021Z,2.07
2023-04-03T03:27:10.040Z,2.43
2023-04-03T03:28:10.032Z,2.25
2023-04-03T03:29:10.078Z,2.25
2023-04-03T03:30:10.118Z,2.08
2023-04-03T03:31:10.079Z,3.12
2023-04-03T03:32:10.049Z,2.24
2023-04-03T03:33:10.027Z,2.50
2023-04-03T03:34:10.045Z,2.51
2023-04-03T03:35:10.039Z,2.35
2023-04-03T03:36:10.195Z,2.04
2023-04-03T03:37:10.083Z,2.49
2023-04-03T03:38:10.038Z,2.08
2023-04-03T03:39:10.069Z,2.37
2023-04-03T03:40:10.119Z,2.28
2023-04-03T03:41:10.125Z,2.26
2023-04-03T03:42:10.130Z,1.84
2023-04-03T03:43:10.191Z,2.21
2023-04-03T03:44:10.141Z,2.50
2023-04-03T03:45:10.120Z,2.28
2023-04-03T03:46:10.409Z,2.25
2023-04-03T03:47:10.283Z,2.40
2023-04-03T03:48:10.266Z,2.40
2023-04-03T03:49:10.272Z,2.68
2023-04-03T03:50:10.278Z,2.66
2023-04-03T03:51:10.309Z,2.58
2023-04-03T03:52:10.317Z,2.90
2023-04-03T03:53:10.282Z,2.37
2023-04-03T03:54:10.273Z,2.60
2023-04-03T03:55:10.250Z,2.59
2023-04-03T03:56:10.312Z,2.70
2023-04-03T03:57:10.317Z,2.31
2023-04-03T03:58:10.185Z,2.90
2023-04-03T03:59:10.208Z,2.73
2023-04-03T04:00:10.262Z,2.79
2023-04-03T04:01:10.232Z,2.55
2023-04-03T04:02:10.269Z,3.04
2023-04-03T04:03:10.210Z,3.11
2023-04-03T04:04:10.203Z,3.31
2023-04-03T04:05:10.301Z,2.91
2023-04-03T04:06:10.273Z,3.29
2023-04-03T04:07:10.390Z,2.98
2023-04-03T04:08:10.398Z,2.92
2023-04-03T04:09:10.440Z,3.64
2023-04-03T04:10:10.481Z,3.07
2023-04-03T04:11:10.398Z,3.42
2023-04-03T04:12:10.450Z,3.30
2023-04-03T04:13:11.322Z,3.22
2023-04-03T04:14:10.501Z,3.42
2023-04-03T04:15:10.463Z,3.59
2023-04-03T04:16:10.487Z,3.58
2023-04-03T04:17:10.510Z,3.49
2023-04-03T04:18:10.546Z,3.29
2023-04-03T04:19:10.598Z,3.27
2023-04-03T04:20:10.633Z,3.43
2023-04-03T04:21:10.784Z,3.73
2023-04-03T04:22:10.702Z,3.52
2023-04-03T04:23:10.726Z,3.67
2023-04-03T04:24:10.844Z,3.85
2023-04-03T04:25:10.779Z,3.55
2023-04-03T04:26:10.891Z,3.97
2023-04-03T04:27:10.913Z,3.79
2023-04-03T04:28:10.883Z,3.85
2023-04-03T04:29:11.022Z,4.64
2023-04-03T04:30:10.982Z,4.37
2023-04-03T04:31:11.157Z,4.18
2023-04-03T04:32:11.090Z,5.10
2023-04-03T04:33:11.140Z,4.72
2023-04-03T04:34:11.694Z,4.95
2023-04-03T04:35:11.292Z,4.62
2023-04-03T04:36:11.355Z,5.18
2023-04-03T04:37:11.336Z,4.81
2023-04-03T04:38:11.281Z,5.73
2023-04-03T04:39:11.283Z,4.42
2023-04-03T04:40:11.399Z,4.78
2023-04-03T04:41:11.361Z,5.03
2023-04-03T04:42:11.377Z,5.41
2023-04-03T04:43:11.267Z,5.47
2023-04-03T04:44:11.394Z,5.49
2023-04-03T04:45:11.564Z,5.80
2023-04-03T04:46:12.204Z,5.67
2023-04-03T04:47:11.318Z,5.17
2023-04-03T04:48:11.161Z,5.33
2023-04-03T04:49:11.279Z,5.42
2023-04-03T04:50:11.180Z,5.03
2023-04-03T04:51:11.191Z,5.87
2023-04-03T04:52:11.183Z,5.61
2023-04-03T04:53:11.180Z,5.23
2023-04-03T04:54:11.208Z,5.58
2023-04-03T04:55:11.363Z,5.47
2023-04-03T04:56:11.352Z,5.00
2023-04-03T04:57:11.372Z,5.51
2023-04-03T04:58:12.188Z,5.64
2023-04-03T04:59:11.353Z,5.89
2023-04-03T05:00:11.323Z,5.93
2023-04-03T05:03:31.103Z,6.63
2023-04-03T05:04:31.100Z,7.22
2023-04-03T05:05:31.188Z,6.88
2023-04-03T05:06:31.062Z,7.11
2023-04-03T05:07:31.013Z,6.77
2023-04-03T05:08:31.056Z,6.25
2023-04-03T05:09:30.983Z,6.11
2023-04-03T05:10:31.051Z,5.85
2023-04-03T05:11:31.001Z,7.08
2023-04-03T05:12:30.979Z,7.05
2023-04-03T05:13:30.976Z,7.03
2023-04-03T05:14:30.933Z,6.77
2023-04-03T05:15:30.982Z,6.14
2023-04-03T05:16:31.642Z,7.09
2023-04-03T05:17:30.948Z,6.51
2023-04-03T05:18:31.013Z,6.93
2023-04-03T05:19:30.966Z,6.56
2023-04-03T05:20:31.335Z,7.11
2023-04-03T05:21:30.939Z,6.94
2023-04-03T05:22:30.937Z,7.34
2023-04-03T05:23:30.901Z,6.71
2023-04-03T05:24:30.878Z,6.66
2023-04-03T05:25:30.898Z,6.43
2023-04-03T05:26:30.912Z,6.82
2023-04-03T05:27:30.978Z,6.75
2023-04-03T05:28:30.898Z,6.40
2023-04-03T05:29:30.900Z,6.88
2023-04-03T05:30:30.836Z,6.76
2023-04-03T05:31:30.936Z,6.18
2023-04-03T05:32:30.903Z,6.56
2023-04-03T05:33:30.816Z,6.97
2023-04-03T05:34:30.839Z,6.84
2023-04-03T05:35:30.937Z,7.10
2023-04-03T05:36:31.335Z,6.91
2023-04-03T05:37:30.825Z,6.63
2023-04-03T05:38:30.846Z,6.35
2023-04-03T05:39:30.829Z,7.14
2023-04-03T05:40:30.770Z,6.73
2023-04-03T05:41:30.762Z,6.33
2023-04-03T05:42:30.765Z,7.42
2023-04-03T05:43:30.775Z,10.05
2023-04-03T05:44:30.802Z,6.82
2023-04-03T05:45:30.902Z,6.97
2023-04-03T05:47:50.427Z,6.54
2023-04-03T05:48:50.472Z,7.05
2023-04-03T05:49:50.471Z,6.25
2023-04-03T05:50:50.389Z,6.36
2023-04-03T05:51:50.391Z,6.53
2023-04-03T05:52:50.479Z,6.32
2023-04-03T05:53:50.393Z,7.07
2023-04-03T05:54:50.363Z,7.31
2023-04-03T05:55:50.411Z,7.23
2023-04-03T05:56:50.463Z,7.41
2023-04-03T05:57:50.420Z,7.01
2023-04-03T05:58:50.351Z,7.06
2023-04-03T05:59:50.348Z,7.03
2023-04-03T06:00:50.335Z,6.55
2023-04-03T06:01:50.405Z,6.85
2023-04-03T06:02:50.606Z,7.56
2023-04-03T06:03:50.528Z,7.85
2023-04-03T06:04:50.529Z,7.25
2023-04-03T06:05:50.375Z,6.76
2023-04-03T06:06:50.401Z,8.05
2023-04-03T06:07:50.392Z,7.62
2023-04-03T06:08:50.292Z,7.14
2023-04-03T06:09:50.305Z,7.32
2023-04-03T06:10:50.321Z,7.68
2023-04-03T06:11:50.344Z,7.64
2023-04-03T06:12:50.384Z,7.29
2023-04-03T06:13:50.291Z,7.82
2023-04-03T06:14:50.286Z,7.02
2023-04-03T06:15:50.293Z,7.77
2023-04-03T06:16:50.305Z,7.70
2023-04-03T06:17:50.862Z,7.51
2023-04-03T06:18:50.261Z,7.87
2023-04-03T06:19:50.266Z,8.10
2023-04-03T06:20:50.200Z,7.78
2023-04-03T06:21:50.593Z,7.64
2023-04-03T06:22:50.283Z,7.08
2023-04-03T06:23:50.290Z,7.06
2023-04-03T06:24:50.264Z,8.10
2023-04-03T06:25:50.214Z,7.88
2023-04-03T06:26:50.225Z,7.31
2023-04-03T06:27:50.326Z,8.15
2023-04-03T06:28:50.221Z,7.84
2023-04-03T06:29:50.246Z,8.42
2023-04-03T06:30:50.216Z,7.57
2023-04-03T06:31:50.150Z,7.96
2023-04-03T06:32:50.261Z,8.49
2023-04-03T06:33:50.167Z,7.54
2023-04-03T06:34:50.283Z,8.79
2023-04-03T06:35:50.297Z,8.60
2023-04-03T06:36:50.308Z,9.09
2023-04-03T06:37:50.498Z,8.42
2023-04-03T06:38:50.425Z,8.33
2023-04-03T06:39:50.408Z,8.45
2023-04-03T06:40:50.412Z,8.32
2023-04-03T06:41:50.437Z,8.15
2023-04-03T06:42:50.537Z,8.60
2023-04-03T06:43:50.630Z,8.13
2023-04-03T06:44:50.548Z,8.89
2023-04-03T06:45:50.613Z,8.02
2023-04-03T06:46:50.662Z,8.65
2023-04-03T06:47:50.708Z,8.90
2023-04-03T06:48:51.430Z,8.11
2023-04-03T06:49:50.674Z,8.72
2023-04-03T06:50:50.699Z,8.86
2023-04-03T06:51:50.680Z,9.21
2023-04-03T06:52:50.799Z,8.75
2023-04-03T06:53:50.744Z,8.35
2023-04-03T06:54:50.820Z,9.81
2023-04-03T06:55:50.826Z,8.74
2023-04-03T06:56:50.872Z,9.05
2023-04-03T06:57:50.851Z,9.35
2023-04-03T06:58:50.838Z,9.24
2023-04-03T06:59:50.872Z,8.94
2023-04-03T07:00:50.865Z,8.74
2023-04-03T07:01:50.981Z,8.55
2023-04-03T07:02:51.004Z,9.04
2023-04-03T07:03:50.977Z,8.75
2023-04-03T07:04:51.049Z,8.86
2023-04-03T07:05:51.000Z,9.27
2023-04-03T07:06:51.420Z,8.04
2023-04-03T07:07:51.113Z,8.93
2023-04-03T07:08:51.116Z,8.72
2023-04-03T07:09:51.202Z,8.08
2023-04-03T07:10:51.157Z,8.40
2023-04-03T07:11:51.239Z,9.03
2023-04-03T07:12:51.282Z,8.56
2023-04-03T07:13:51.366Z,9.25
2023-04-03T07:14:51.479Z,8.34
2023-04-03T07:15:51.505Z,8.61
2023-04-03T07:16:51.583Z,7.95
2023-04-03T07:17:51.742Z,8.77
2023-04-03T07:18:51.584Z,8.71
2023-04-03T07:19:51.675Z,8.82
2023-04-03T07:20:52.063Z,8.64
2023-04-03T07:21:51.794Z,8.77
2023-04-03T07:22:52.059Z,8.67
2023-04-03T07:23:51.866Z,8.57
2023-04-03T07:24:52.545Z,9.01
2023-04-03T07:25:51.920Z,9.36
2023-04-03T07:26:52.508Z,8.54
2023-04-03T07:27:51.989Z,8.90
2023-04-03T07:28:59.864Z,9.06
2023-04-03T07:29:52.991Z,9.78
2023-04-03T07:30:52.060Z,9.37
2023-04-03T07:31:52.238Z,9.12
2023-04-03T07:32:52.427Z,8.95
2023-04-03T07:33:52.116Z,8.31
2023-04-03T07:34:52.147Z,8.89
2023-04-03T07:35:52.175Z,8.39
2023-04-03T07:36:52.052Z,8.30
2023-04-03T07:37:52.140Z,7.83
2023-04-03T07:38:52.102Z,8.04
2023-04-03T07:39:52.129Z,8.13
2023-04-03T07:40:52.235Z,8.66
2023-04-03T07:41:52.218Z,8.59
2023-04-03T07:42:52.281Z,8.56
2023-04-03T07:43:52.278Z,8.13
2023-04-03T07:44:52.337Z,8.20
2023-04-03T07:45:52.435Z,8.42
2023-04-03T07:46:52.367Z,8.91
2023-04-03T07:47:52.426Z,8.65
2023-04-03T07:48:52.407Z,7.55
2023-04-03T07:49:52.363Z,8.18
2023-04-03T07:50:52.337Z,8.84
2023-04-03T07:51:52.327Z,9.03
2023-04-03T07:52:52.355Z,8.99
2023-04-03T07:53:52.450Z,8.98
2023-04-03T07:54:52.440Z,8.37
2023-04-03T07:55:52.560Z,8.13
2023-04-03T07:56:52.603Z,9.23
2023-04-03T07:57:52.615Z,8.24
2023-04-03T07:58:52.592Z,8.93
2023-04-03T07:59:52.581Z,9.06
2023-04-03T08:00:52.575Z,9.02
2023-04-03T08:01:53.062Z,9.87
2023-04-03T08:02:53.065Z,9.24
2023-04-03T08:03:52.639Z,9.42
2023-04-03T08:04:52.561Z,9.61
2023-04-03T08:05:52.460Z,9.03
2023-04-03T08:06:52.496Z,9.90
2023-04-03T08:07:52.487Z,8.93
2023-04-03T08:08:52.508Z,9.62
2023-04-03T08:09:52.638Z,9.69
2023-04-03T08:10:52.548Z,9.25
2023-04-03T08:11:52.548Z,9.69
2023-04-03T08:12:52.702Z,9.32
2023-04-03T08:13:53.625Z,9.33
2023-04-03T08:14:52.661Z,8.85
2023-04-03T08:15:52.796Z,9.33
2023-04-03T08:16:52.855Z,9.53
2023-04-03T08:17:52.864Z,10.02
2023-04-03T08:18:52.841Z,9.65
2023-04-03T08:19:52.862Z,9.60
2023-04-03T08:20:52.826Z,9.90
2023-04-03T08:21:52.936Z,10.22
2023-04-03T08:22:52.880Z,9.86
2023-04-03T08:23:52.843Z,9.42
2023-04-03T08:24:59.003Z,9.49
2023-04-03T08:25:52.771Z,9.75
2023-04-03T08:26:52.810Z,9.23
2023-04-03T08:27:52.839Z,10.19
2023-04-03T08:28:52.926Z,9.36
2023-04-03T08:29:52.784Z,9.91
2023-04-03T08:30:52.782Z,9.92
2023-04-03T08:31:52.841Z,9.16
2023-04-03T08:32:52.872Z,9.73
2023-04-03T08:33:52.867Z,9.83
2023-04-03T08:34:52.876Z,9.54
2023-04-03T08:35:52.799Z,9.35
2023-04-03T08:36:52.750Z,9.26
2023-04-03T08:37:52.836Z,9.32
2023-04-03T08:38:52.830Z,9.25
2023-04-03T08:39:52.864Z,9.42
2023-04-03T08:40:52.941Z,9.61
2023-04-03T08:41:52.972Z,8.99
2023-04-03T08:42:52.957Z,8.53
2023-04-03T08:43:52.982Z,8.92
2023-04-03T08:44:53.013Z,9.73
2023-04-03T08:45:53.017Z,9.23
2023-04-03T08:46:53.017Z,9.01
2023-04-03T08:47:53.958Z,8.66
2023-04-03T08:48:53.646Z,8.60
2023-04-03T08:49:53.124Z,9.10
2023-04-03T08:50:53.295Z,7.33
2023-04-03T08:51:53.114Z,8.46
2023-04-03T08:52:53.247Z,8.85
2023-04-03T08:53:53.246Z,8.68
2023-04-03T08:54:53.142Z,9.40
2023-04-03T08:55:53.178Z,8.29
2023-04-03T08:56:53.174Z,8.25
2023-04-03T08:57:54.096Z,8.81
2023-04-03T08:58:53.177Z,9.15
2023-04-03T08:59:53.132Z,9.11
2023-04-03T09:00:53.127Z,9.18
2023-04-03T09:01:53.138Z,8.39
2023-04-03T09:02:53.160Z,8.90
2023-04-03T09:03:53.115Z,8.33
2023-04-03T09:04:53.139Z,8.00
2023-04-03T09:05:53.122Z,7.60
2023-04-03T09:06:53.115Z,7.65
2023-04-03T09:07:53.046Z,7.78
2023-04-03T09:08:53.160Z,9.25
2023-04-03T09:09:53.175Z,8.28
2023-04-03T09:10:53.036Z,8.50
2023-04-03T09:11:53.009Z,8.14
2023-04-03T09:12:53.028Z,8.34
2023-04-03T09:13:53.069Z,7.78
2023-04-03T09:14:53.029Z,7.87
2023-04-03T09:15:53.047Z,7.85
2023-04-03T09:16:53.654Z,8.14
2023-04-03T09:17:53.060Z,8.30
2023-04-03T09:18:52.979Z,7.74
2023-04-03T09:19:54.053Z,8.22
2023-04-03T09:20:53.484Z,8.41
2023-04-03T09:21:53.026Z,7.79
2023-04-03T09:22:53.286Z,7.87
2023-04-03T09:23:52.961Z,7.72
2023-04-03T09:24:52.949Z,7.97
2023-04-03T09:25:53.007Z,8.56
2023-04-03T09:26:53.045Z,8.47
2023-04-03T09:27:53.097Z,7.80
2023-04-03T09:28:53.019Z,7.50
2023-04-03T09:29:52.884Z,8.30
2023-04-03T09:30:52.952Z,8.32
2023-04-03T09:31:52.982Z,7.78
2023-04-03T09:32:52.918Z,8.90
2023-04-03T09:33:52.869Z,8.28
2023-04-03T09:34:52.966Z,8.04
2023-04-03T09:35:53.129Z,7.40
2023-04-03T09:36:52.879Z,8.06
2023-04-03T09:37:52.900Z,8.63
2023-04-03T09:38:52.860Z,8.17
2023-04-03T09:39:52.841Z,8.12
2023-04-03T09:40:52.835Z,6.72
2023-04-03T09:41:52.931Z,7.05
2023-04-03T09:43:00.913Z,6.15
2023-04-03T09:43:53.942Z,6.29
2023-04-03T09:44:52.840Z,6.21
2023-04-03T09:45:52.846Z,5.82
2023-04-03T09:46:52.932Z,6.48
2023-04-03T09:47:52.935Z,5.81
2023-04-03T09:49:01.341Z,5.85
2023-04-03T09:49:52.833Z,6.07
2023-04-03T09:50:52.799Z,5.91
2023-04-03T09:51:52.739Z,5.84
2023-04-03T09:52:52.823Z,5.31
2023-04-03T09:53:52.747Z,5.47
2023-04-03T09:54:52.733Z,6.37
2023-04-03T09:55:53.477Z,5.33
2023-04-03T09:56:52.938Z,5.36
2023-04-03T09:57:53.686Z,6.23
2023-04-03T09:58:52.785Z,5.92
2023-04-03T09:59:52.785Z,5.89
2023-04-03T10:00:52.861Z,5.92
2023-04-03T10:01:52.811Z,6.28
2023-04-03T10:02:53.081Z,5.86
2023-04-03T10:03:52.934Z,5.90
2023-04-03T10:05:06.402Z,5.45
2023-04-03T10:05:53.802Z,6.03
2023-04-03T10:06:52.853Z,6.43
2023-04-03T10:08:01.693Z,5.62
2023-04-03T10:08:54.021Z,5.96
2023-04-03T10:09:52.821Z,6.24
2023-04-03T10:10:52.953Z,12.28
2023-04-03T10:11:52.840Z,8.07
2023-04-03T10:12:53.620Z,6.82
2023-04-03T10:13:52.833Z,6.24
2023-04-03T10:14:52.824Z,6.26
2023-04-03T10:15:52.917Z,6.89
2023-04-03T10:16:52.882Z,6.64
2023-04-03T10:17:52.877Z,6.52
2023-04-03T10:18:53.031Z,6.23
2023-04-03T10:19:53.953Z,6.50
2023-04-03T10:20:53.991Z,7.02
2023-04-03T10:21:52.944Z,7.63
2023-04-03T10:22:53.002Z,7.66
2023-04-03T10:23:53.235Z,8.43
2023-04-03T10:24:53.212Z,5.83
2023-04-03T10:25:53.200Z,5.57
2023-04-03T10:26:53.202Z,5.06
2023-04-03T10:27:54.114Z,5.30
2023-04-03T10:28:53.287Z,5.26
2023-04-03T10:29:53.334Z,5.53
2023-04-03T10:30:53.557Z,5.14
2023-04-03T10:31:53.427Z,7.90
2023-04-03T10:32:53.470Z,5.37
2023-04-03T10:33:53.568Z,5.42
2023-04-03T10:35:02.588Z,5.68
2023-04-03T10:35:54.558Z,5.59
2023-04-03T10:36:53.570Z,5.36
2023-04-03T10:37:53.625Z,5.02
2023-04-03T10:38:53.589Z,4.85
2023-04-03T10:39:53.499Z,5.04
2023-04-03T10:40:53.620Z,4.74
2023-04-03T10:41:57.886Z,4.91
2023-04-03T10:42:54.460Z,5.90
2023-04-03T10:43:53.468Z,5.28
2023-04-03T10:44:53.493Z,5.29
2023-04-03T10:45:53.559Z,5.62
2023-04-03T10:46:53.449Z,6.24
2023-04-03T10:47:53.487Z,5.53
2023-04-03T10:48:53.467Z,5.32
2023-04-03T10:49:59.322Z,5.04
2023-04-03T10:50:54.469Z,10.58
2023-04-03T10:51:53.496Z,11.10
2023-04-03T10:52:53.401Z,12.39
2023-04-03T10:53:53.870Z,5.20
2023-04-03T10:54:53.504Z,5.02
2023-04-03T10:55:53.388Z,5.70
2023-04-03T10:57:01.051Z,5.04
2023-04-03T10:57:54.395Z,5.56
2023-04-03T10:58:53.440Z,5.29
2023-04-03T10:59:53.341Z,6.19
2023-04-03T11:00:53.360Z,5.41
2023-04-03T11:01:53.510Z,5.95
2023-04-03T11:02:53.703Z,5.42
2023-04-03T11:03:53.541Z,5.75
2023-04-03T11:04:53.353Z,6.46
2023-04-03T11:05:53.389Z,5.88
2023-04-03T11:06:53.388Z,5.51
2023-04-03T11:07:53.409Z,5.45
2023-04-03T11:08:53.331Z,5.09
2023-04-03T11:09:53.331Z,4.47
2023-04-03T11:10:53.334Z,4.85
2023-04-03T11:11:53.363Z,5.15
2023-04-03T11:12:54.368Z,5.36
2023-04-03T11:13:53.444Z,4.90
2023-04-03T11:14:53.343Z,5.43
2023-04-03T11:15:53.354Z,5.73
2023-04-03T11:16:54.283Z,5.23
2023-04-03T11:17:53.382Z,5.03
2023-04-03T11:18:53.368Z,4.50
2023-04-03T11:19:53.993Z,4.74
2023-04-03T11:20:53.383Z,4.83
2023-04-03T11:21:53.385Z,4.71
2023-04-03T11:22:53.294Z,5.42
2023-04-03T11:23:53.258Z,4.71
2023-04-03T11:24:53.202Z,4.51
2023-04-03T11:25:53.414Z,4.83
2023-04-03T11:26:53.288Z,4.56
2023-04-03T11:27:53.318Z,4.92
2023-04-03T11:28:53.343Z,5.18
2023-04-03T11:29:53.549Z,4.67
2023-04-03T11:30:53.966Z,5.06
2023-04-03T11:31:53.527Z,4.76
2023-04-03T11:32:53.522Z,4.89
2023-04-03T11:33:53.637Z,4.96
2023-04-03T11:34:53.585Z,5.14
2023-04-03T11:35:53.653Z,4.61
2023-04-03T11:36:53.715Z,11.17
2023-04-03T11:37:53.637Z,5.43
2023-04-03T11:38:54.736Z,4.39
2023-04-03T11:39:53.627Z,4.55
2023-04-03T11:40:53.653Z,4.35
2023-04-03T11:42:03.302Z,4.26
2023-04-03T11:42:54.677Z,3.95
2023-04-03T11:43:53.697Z,5.07
2023-04-03T11:44:53.643Z,4.31
2023-04-03T11:45:53.660Z,5.12
2023-04-03T11:46:56.474Z,4.62
2023-04-03T11:47:53.748Z,4.19
2023-04-03T11:48:53.688Z,4.83
2023-04-03T11:49:53.609Z,4.47
2023-04-03T11:50:53.588Z,4.36
2023-04-03T11:51:53.554Z,3.52
2023-04-03T11:52:53.557Z,3.99
2023-04-03T11:53:53.501Z,4.07
2023-04-03T11:54:53.526Z,3.61
2023-04-03T11:55:53.574Z,3.37
2023-04-03T11:56:53.576Z,3.61
2023-04-03T11:57:53.480Z,3.87
2023-04-03T11:58:53.526Z,4.11
2023-04-03T11:59:53.491Z,3.95
2023-04-03T12:00:53.581Z,4.03
2023-04-03T12:01:53.635Z,4.41
2023-04-03T12:02:54.916Z,3.61
2023-04-03T12:03:53.509Z,3.90
2023-04-03T12:04:53.590Z,4.51
2023-04-03T12:05:53.524Z,4.14
2023-04-03T12:06:53.540Z,3.71
2023-04-03T12:07:53.589Z,4.30
2023-04-03T12:08:53.692Z,3.91
2023-04-03T12:09:53.626Z,3.94
2023-04-03T12:10:54.220Z,3.87
2023-04-03T12:11:53.672Z,4.23
2023-04-03T12:12:53.619Z,4.42
2023-04-03T12:13:53.579Z,3.72
2023-04-03T12:14:53.634Z,4.11
2023-04-03T12:15:53.663Z,4.09
2023-04-03T12:16:53.649Z,4.30
2023-04-03T12:17:53.726Z,4.29
2023-04-03T12:18:53.740Z,3.53
2023-04-03T12:19:53.745Z,4.26
2023-04-03T12:20:53.757Z,4.26
2023-04-03T12:21:53.785Z,4.18
2023-04-03T12:22:53.807Z,5.13
2023-04-03T12:23:54.582Z,6.99
2023-04-03T12:24:53.859Z,7.04
2023-04-03T12:25:53.950Z,3.91
2023-04-03T12:26:53.839Z,4.33
2023-04-03T12:27:53.921Z,3.80
2023-04-03T12:28:53.953Z,3.89
2023-04-03T12:29:53.910Z,3.52
2023-04-03T12:30:53.940Z,3.48
2023-04-03T12:31:53.891Z,4.33
2023-04-03T12:33:05.673Z,4.21
2023-04-03T12:33:54.978Z,4.05
2023-04-03T12:34:53.934Z,4.05
2023-04-03T12:35:53.883Z,4.48
2023-04-03T12:36:53.866Z,3.90
2023-04-03T12:37:53.862Z,3.91
2023-04-03T12:38:54.617Z,3.99
2023-04-03T12:39:53.922Z,3.88
2023-04-03T12:40:53.869Z,4.38
2023-04-03T12:41:53.827Z,4.37
2023-04-03T12:42:53.837Z,4.38
2023-04-03T12:43:53.846Z,3.65
2023-04-03T12:44:53.789Z,4.04
2023-04-03T12:45:53.972Z,4.20
2023-04-03T12:46:53.856Z,4.67
2023-04-03T12:47:53.857Z,3.61
2023-04-03T12:48:53.879Z,4.06
2023-04-03T12:49:53.852Z,4.06
2023-04-03T12:50:53.769Z,4.37
2023-04-03T12:51:53.737Z,3.87
2023-04-03T12:52:53.799Z,4.27
2023-04-03T12:53:53.768Z,4.17
2023-04-03T12:54:53.740Z,4.46
2023-04-03T12:55:53.852Z,4.22
2023-04-03T12:56:53.819Z,4.77
2023-04-03T12:57:53.845Z,4.84
2023-04-03T12:58:53.994Z,4.70
2023-04-03T12:59:54.057Z,4.38
2023-04-03T13:00:54.108Z,3.93
2023-04-03T13:01:54.054Z,3.67
2023-04-03T13:02:54.182Z,3.46
2023-04-03T13:03:54.110Z,3.76
2023-04-03T13:04:54.157Z,3.86
2023-04-03T13:05:54.145Z,3.61
2023-04-03T13:06:54.229Z,4.23
2023-04-03T13:07:54.253Z,4.16
2023-04-03T13:08:54.262Z,4.04
2023-04-03T13:09:54.346Z,4.29
2023-04-03T13:10:54.320Z,4.47
2023-04-03T13:11:54.351Z,4.55
2023-04-03T13:12:54.352Z,4.38
2023-04-03T13:13:54.496Z,3.79
2023-04-03T13:14:54.522Z,4.42
2023-04-03T13:15:54.541Z,4.34
2023-04-03T13:16:54.505Z,4.30
2023-04-03T13:17:54.480Z,4.54
2023-04-03T13:18:54.538Z,3.76
2023-04-03T13:19:54.655Z,3.88
2023-04-03T13:20:54.566Z,3.73
2023-04-03T13:21:54.686Z,4.13